CheckWX is a tool to help pilots better visualize weather data.  It is not intended as a substitute for an official pre-flight weather briefing.

06:56:59 UTC

KMGN METAR
Harbor Springs Airport
Harbor Springs, Michigan, USA
Current

21 mins ago

KMGN 210636Z AUTO 32004KT 10SM CLR 05/01 A3016 RMK AO2 T00550012
Observed
May-21 @ 06:36 UTC
Wind
  • 320° at 4 KTS
Visibility
10 SM
Flight Rules
VFR
Cloud Levels
  • Clear skies
Temperature
C / 43°F
Dewpoint
C / 34°F
Humidity
71%
Altimeter
30.16" Hg
Pressure
1021.32 hPa
Previous

41 mins ago

KMGN 210616Z AUTO 32005KT 10SM CLR 03/02 A3015 RMK AO2 T00400021
Observed
May-21 @ 06:16 UTC
Wind
  • 320° at 5 KTS
Visibility
10 SM
Flight Rules
VFR
Cloud Levels
  • Clear skies
Temperature
C / 39°F
Dewpoint
C / 36°F
Humidity
87%
Altimeter
30.15" Hg
Pressure
1021.02 hPa
Previous

1 hour ago

KMGN 210555Z AUTO 00000KT 10SM CLR 03/02 A3015 RMK AO2 T00350030
Observed
May-21 @ 05:55 UTC
Visibility
10 SM
Flight Rules
VFR
Cloud Levels
  • Clear skies
Temperature
C / 39°F
Dewpoint
C / 37°F
Humidity
93%
Altimeter
30.15" Hg
Pressure
1021.02 hPa